Time;durP1;ratioP1;P1;durP2;ratioP2;P2;SDS_P1;SDS_P2;PMS_P1;PMS_P2;Temp;Humidity;BMP_temperature;BMP_pressure;BME280_temperature;BME280_humidity;BME280_pressure;Samples;Min_cycle;Max_cycle;Signal;HPM_P1;HPM_P2
2023/05/03 00:02:05;;;;;;;6.93;2.67;;;;;;;;;;5035774;28;20402;-79
2023/05/03 00:04:32;;;;;;;6.10;2.67;;;;;;;;;;5035732;28;20109;-79
2023/05/03 00:06:57;;;;;;;7.28;2.90;;;;;;;;;;5035861;28;20088;-78
2023/05/03 00:09:23;;;;;;;7.68;2.85;;;;;;;;;;5035605;28;20033;-78
2023/05/03 00:11:48;;;;;;;10.70;2.95;;;;;;;;;;5036184;28;20027;-79
2023/05/03 00:14:14;;;;;;;6.78;2.90;;;;;;;;;;5036172;28;20029;-79
2023/05/03 00:16:40;;;;;;;9.82;2.80;;;;;;;;;;5035933;28;20025;-79
2023/05/03 00:19:05;;;;;;;4.50;2.30;;;;;;;;;;5036815;28;20021;-79
2023/05/03 00:21:30;;;;;;;6.78;2.70;;;;;;;;;;5036548;28;20076;-78
2023/05/03 00:23:56;;;;;;;5.80;2.63;;;;;;;;;;5035728;28;20017;-78
2023/05/03 00:26:21;;;;;;;10.10;2.92;;;;;;;;;;5035432;28;20052;-79
2023/05/03 00:28:47;;;;;;;5.55;2.85;;;;;;;;;;5035766;28;20025;-79
2023/05/03 00:31:12;;;;;;;8.02;2.78;;;;;;;;;;5035774;28;20028;-78
2023/05/03 00:33:38;;;;;;;8.10;2.60;;;;;;;;;;5036198;28;20031;-78
2023/05/03 00:36:14;;;;;;;8.95;2.85;;;;;;;;;;5035277;28;20022;-74
2023/05/03 00:38:40;;;;;;;5.00;2.30;;;;;;;;;;5035138;28;20033;-74
2023/05/03 00:41:08;;;;;;;8.15;2.35;;;;;;;;;;5035835;28;20013;-72
2023/05/03 00:43:34;;;;;;;6.55;2.33;;;;;;;;;;5035687;28;20079;-74
2023/05/03 00:46:02;;;;;;;7.97;2.95;;;;;;;;;;5035464;28;20017;-77
2023/05/03 00:48:27;;;;;;;11.27;2.60;;;;;;;;;;5035167;28;20033;-70
2023/05/03 00:50:55;;;;;;;6.88;2.20;;;;;;;;;;5034400;28;20082;-77
2023/05/03 00:53:22;;;;;;;8.18;2.60;;;;;;;;;;5035380;28;20017;-76
2023/05/03 00:55:51;;;;;;;5.18;2.58;;;;;;;;;;5035214;28;20491;-76
2023/05/03 00:58:16;;;;;;;6.00;2.50;;;;;;;;;;5035675;28;20034;-73
2023/05/03 01:00:42;;;;;;;8.23;2.75;;;;;;;;;;5035286;28;20033;-75
2023/05/03 01:03:08;;;;;;;5.00;2.53;;;;;;;;;;5035061;28;20088;-70
2023/05/03 01:05:59;;;;;;;6.43;2.88;;;;;;;;;;5035004;28;20030;-78
2023/05/03 01:08:31;;;;;;;9.52;2.60;;;;;;;;;;5034358;28;20148;-73
2023/05/03 01:10:59;;;;;;;6.30;2.70;;;;;;;;;;5035353;28;20104;-72
2023/05/03 01:13:53;;;;;;;7.00;2.63;;;;;;;;;;5035036;28;20022;-77
2023/05/03 01:16:38;;;;;;;7.45;2.55;;;;;;;;;;5034828;28;20033;-76
2023/05/03 01:19:12;;;;;;;5.75;2.63;;;;;;;;;;5034509;28;20545;-70
2023/05/03 01:21:41;;;;;;;11.35;2.90;;;;;;;;;;5033899;28;20048;-66
2023/05/03 01:24:15;;;;;;;5.85;2.55;;;;;;;;;;5034581;28;20025;-68
2023/05/03 01:26:41;;;;;;;6.68;2.83;;;;;;;;;;5034048;28;20080;-67
2023/05/03 01:29:06;;;;;;;6.43;2.35;;;;;;;;;;5034107;28;20483;-65
2023/05/03 01:31:37;;;;;;;9.40;3.00;;;;;;;;;;5033982;28;20029;-68
2023/05/03 01:34:09;;;;;;;5.95;2.40;;;;;;;;;;5034055;28;20116;-78
2023/05/03 01:36:35;;;;;;;5.57;2.78;;;;;;;;;;5033528;28;20037;-69
2023/05/03 01:39:09;;;;;;;7.20;2.72;;;;;;;;;;5033955;28;20025;-76
2023/05/03 01:41:38;;;;;;;6.40;2.47;;;;;;;;;;5034329;28;20025;-70
2023/05/03 01:44:06;;;;;;;7.47;2.67;;;;;;;;;;5034571;28;20060;-76
2023/05/03 01:46:31;;;;;;;6.63;2.85;;;;;;;;;;5034099;28;20033;-77
2023/05/03 01:48:57;;;;;;;7.00;2.67;;;;;;;;;;5033597;28;20507;-75
2023/05/03 01:51:22;;;;;;;10.00;3.22;;;;;;;;;;5033410;28;20036;-75
2023/05/03 01:53:48;;;;;;;5.38;2.63;;;;;;;;;;5033750;28;20033;-70
2023/05/03 01:56:13;;;;;;;4.95;2.42;;;;;;;;;;5033683;28;20068;-65
2023/05/03 01:58:39;;;;;;;5.55;2.80;;;;;;;;;;5033815;28;20060;-78
2023/05/03 02:01:06;;;;;;;7.78;2.75;;;;;;;;;;5033397;28;20355;-69
2023/05/03 02:03:32;;;;;;;8.43;2.97;;;;;;;;;;5032480;28;20048;-79
2023/05/03 02:05:58;;;;;;;5.85;2.78;;;;;;;;;;5033664;28;20045;-68
2023/05/03 02:08:23;;;;;;;4.93;2.58;;;;;;;;;;5033655;28;20106;-75
2023/05/03 02:10:48;;;;;;;9.00;3.10;;;;;;;;;;5033381;28;20377;-69
2023/05/03 02:13:15;;;;;;;5.65;2.90;;;;;;;;;;5033344;28;20083;-72
2023/05/03 02:15:40;;;;;;;8.30;3.40;;;;;;;;;;5034576;28;20026;-67
2023/05/03 02:18:07;;;;;;;11.80;3.63;;;;;;;;;;5033850;28;20090;-67
2023/05/03 02:20:36;;;;;;;10.02;3.70;;;;;;;;;;5033672;28;20029;-70
2023/05/03 02:23:02;;;;;;;6.97;3.80;;;;;;;;;;5033290;28;20037;-68
2023/05/03 02:25:28;;;;;;;5.38;2.90;;;;;;;;;;5033266;28;20041;-75
2023/05/03 02:27:54;;;;;;;7.82;3.78;;;;;;;;;;5033339;28;20117;-68
2023/05/03 02:30:19;;;;;;;11.60;3.28;;;;;;;;;;5033091;28;20356;-71
2023/05/03 02:32:44;;;;;;;8.82;3.30;;;;;;;;;;5033162;28;20025;-78
2023/05/03 02:35:10;;;;;;;6.28;3.33;;;;;;;;;;5033249;28;20033;-71
2023/05/03 02:37:35;;;;;;;10.98;3.50;;;;;;;;;;5033226;28;20479;-75
2023/05/03 02:40:01;;;;;;;7.75;3.38;;;;;;;;;;5033341;28;20021;-70
2023/05/03 02:42:26;;;;;;;6.25;3.60;;;;;;;;;;5033618;28;20475;-78
2023/05/03 02:44:51;;;;;;;8.98;4.00;;;;;;;;;;5034056;28;20038;-79
2023/05/03 02:47:17;;;;;;;7.03;3.42;;;;;;;;;;5033670;28;20030;-79
2023/05/03 02:49:42;;;;;;;8.40;3.17;;;;;;;;;;5032947;28;20051;-76
2023/05/03 02:52:08;;;;;;;9.13;3.28;;;;;;;;;;5032927;28;20033;-77
2023/05/03 02:54:33;;;;;;;5.50;2.90;;;;;;;;;;5033003;28;20037;-78
2023/05/03 02:57:00;;;;;;;5.90;2.88;;;;;;;;;;5032952;28;20033;-79
2023/05/03 02:59:26;;;;;;;8.68;3.42;;;;;;;;;;5032964;28;20027;-78
2023/05/03 03:01:51;;;;;;;10.07;3.33;;;;;;;;;;5032654;28;20029;-77
2023/05/03 03:04:16;;;;;;;11.38;3.40;;;;;;;;;;5032781;28;20075;-78
2023/05/03 03:06:42;;;;;;;8.32;3.13;;;;;;;;;;5032772;28;20057;-73
2023/05/03 03:09:07;;;;;;;8.05;3.60;;;;;;;;;;5032719;28;20052;-72
2023/05/03 03:11:33;;;;;;;12.75;4.18;;;;;;;;;;5032822;28;20466;-78
2023/05/03 03:13:58;;;;;;;7.93;3.22;;;;;;;;;;5034750;28;20033;-78
2023/05/03 03:16:23;;;;;;;5.25;2.80;;;;;;;;;;5036745;28;20433;-80
2023/05/03 03:18:49;;;;;;;8.75;3.22;;;;;;;;;;5036990;28;20040;-75
2023/05/03 03:21:14;;;;;;;13.40;3.15;;;;;;;;;;5036354;28;20434;-69
2023/05/03 03:23:40;;;;;;;7.53;2.80;;;;;;;;;;5036260;28;20076;-75
2023/05/03 03:26:05;;;;;;;10.88;2.97;;;;;;;;;;5036264;28;20047;-78
2023/05/03 03:28:30;;;;;;;8.18;3.08;;;;;;;;;;5036302;28;20033;-77
2023/05/03 03:30:56;;;;;;;8.90;3.08;;;;;;;;;;5035890;28;20483;-77
2023/05/03 03:33:22;;;;;;;8.27;2.90;;;;;;;;;;5036204;28;20161;-73
2023/05/03 03:35:47;;;;;;;6.47;3.00;;;;;;;;;;5035944;28;20033;-75
2023/05/03 03:38:13;;;;;;;10.95;3.20;;;;;;;;;;5036383;28;20421;-68
2023/05/03 03:40:38;;;;;;;27.67;5.40;;;;;;;;;;5035972;28;20021;-78
2023/05/03 03:43:04;;;;;;;25.00;6.55;;;;;;;;;;5036172;28;20048;-76
2023/05/03 03:45:29;;;;;;;23.27;6.55;;;;;;;;;;5035861;28;20025;-75
2023/05/03 03:47:56;;;;;;;34.42;8.00;;;;;;;;;;5036112;28;20064;-70
2023/05/03 03:50:23;;;;;;;35.40;8.90;;;;;;;;;;5035885;28;20037;-70
2023/05/03 03:52:49;;;;;;;36.25;8.63;;;;;;;;;;5035644;28;20034;-70
2023/05/03 03:55:14;;;;;;;52.28;11.10;;;;;;;;;;5035710;28;20056;-72
2023/05/03 03:57:40;;;;;;;52.08;13.70;;;;;;;;;;5035648;28;20033;-77
2023/05/03 04:00:10;;;;;;;52.03;12.80;;;;;;;;;;5035496;28;20029;-72
2023/05/03 04:02:36;;;;;;;48.33;10.85;;;;;;;;;;5035578;28;20033;-69
2023/05/03 04:05:02;;;;;;;37.45;8.68;;;;;;;;;;5035549;28;20028;-70
2023/05/03 04:07:28;;;;;;;10.93;4.43;;;;;;;;;;5035583;28;20036;-78
2023/05/03 04:09:55;;;;;;;27.15;6.22;;;;;;;;;;5035589;28;20401;-70
2023/05/03 04:12:21;;;;;;;9.55;3.38;;;;;;;;;;5035552;28;20030;-78
2023/05/03 04:14:46;;;;;;;8.93;2.92;;;;;;;;;;5035052;28;20026;-69
2023/05/03 04:17:11;;;;;;;7.63;2.70;;;;;;;;;;5035452;28;20159;-77
2023/05/03 04:19:37;;;;;;;10.27;3.15;;;;;;;;;;5035067;28;20053;-71
2023/05/03 04:22:03;;;;;;;7.80;3.17;;;;;;;;;;5035316;28;20126;-78
2023/05/03 04:24:29;;;;;;;9.38;3.15;;;;;;;;;;5034714;28;20025;-67
2023/05/03 04:26:55;;;;;;;7.10;3.05;;;;;;;;;;5034338;28;20041;-68
2023/05/03 04:29:21;;;;;;;6.43;3.10;;;;;;;;;;5034806;28;20034;-77
2023/05/03 04:31:46;;;;;;;8.90;2.80;;;;;;;;;;5035037;28;20025;-74
2023/05/03 04:34:14;;;;;;;8.45;3.15;;;;;;;;;;5034943;28;20025;-67
2023/05/03 04:36:45;;;;;;;6.68;2.55;;;;;;;;;;5034893;28;20025;-69
2023/05/03 04:39:11;;;;;;;8.25;3.10;;;;;;;;;;5034999;28;20052;-78
2023/05/03 04:41:39;;;;;;;9.20;2.80;;;;;;;;;;5033683;28;20348;-68
2023/05/03 04:44:05;;;;;;;8.20;2.55;;;;;;;;;;5034974;28;20026;-69
2023/05/03 04:46:31;;;;;;;6.45;3.00;;;;;;;;;;5035009;28;20037;-75
2023/05/03 04:48:56;;;;;;;9.35;3.15;;;;;;;;;;5034668;28;20022;-69
2023/05/03 04:51:22;;;;;;;7.88;2.70;;;;;;;;;;5034875;28;20034;-64
2023/05/03 04:53:48;;;;;;;9.60;2.97;;;;;;;;;;5034766;28;20029;-76
2023/05/03 04:56:14;;;;;;;5.30;2.47;;;;;;;;;;5034811;28;20041;-64
2023/05/03 04:58:40;;;;;;;7.25;2.90;;;;;;;;;;5034922;28;20075;-65
2023/05/03 05:01:06;;;;;;;6.88;2.67;;;;;;;;;;5034353;28;20534;-64
2023/05/03 05:03:31;;;;;;;4.93;2.55;;;;;;;;;;5034932;28;20434;-71
2023/05/03 05:05:57;;;;;;;8.75;3.13;;;;;;;;;;5034771;28;20025;-67
2023/05/03 05:08:22;;;;;;;6.22;3.15;;;;;;;;;;5035965;28;20079;-69
2023/05/03 05:10:48;;;;;;;6.80;2.80;;;;;;;;;;5036309;28;20022;-71
2023/05/03 05:13:13;;;;;;;6.65;2.78;;;;;;;;;;5034249;28;20025;-70
2023/05/03 05:15:39;;;;;;;5.57;2.60;;;;;;;;;;5034722;28;20117;-76
2023/05/03 05:18:04;;;;;;;5.68;2.50;;;;;;;;;;5034267;28;20116;-68
2023/05/03 05:20:30;;;;;;;5.18;2.65;;;;;;;;;;5033629;28;20026;-64
2023/05/03 05:22:55;;;;;;;9.27;2.95;;;;;;;;;;5034289;28;20037;-65
2023/05/03 05:25:21;;;;;;;6.97;2.88;;;;;;;;;;5034415;28;20032;-74
2023/05/03 05:27:46;;;;;;;10.15;2.80;;;;;;;;;;5034317;28;20036;-78
2023/05/03 05:30:12;;;;;;;4.72;2.53;;;;;;;;;;5035615;28;20025;-77
2023/05/03 05:32:37;;;;;;;9.25;3.03;;;;;;;;;;5035428;28;20467;-77
2023/05/03 05:35:03;;;;;;;5.88;2.80;;;;;;;;;;5034503;28;20017;-77
2023/05/03 05:37:28;;;;;;;8.10;3.03;;;;;;;;;;5033485;28;20447;-77
2023/05/03 05:39:54;;;;;;;5.60;2.88;;;;;;;;;;5033893;28;20021;-77
2023/05/03 05:42:19;;;;;;;6.10;3.33;;;;;;;;;;5033817;28;20035;-77
2023/05/03 05:44:45;;;;;;;3.50;2.38;;;;;;;;;;5034900;28;20036;-76
2023/05/03 05:47:11;;;;;;;10.25;3.30;;;;;;;;;;5034289;28;20026;-72
2023/05/03 05:49:36;;;;;;;9.48;2.80;;;;;;;;;;5033866;28;20033;-78
2023/05/03 05:52:02;;;;;;;9.85;3.15;;;;;;;;;;5034934;28;20029;-79
2023/05/03 05:54:27;;;;;;;7.60;2.83;;;;;;;;;;5034917;28;20160;-78
2023/05/03 05:56:52;;;;;;;7.43;2.50;;;;;;;;;;5036482;28;20026;-78
2023/05/03 05:59:18;;;;;;;7.18;3.05;;;;;;;;;;5033873;28;20029;-78
2023/05/03 06:01:45;;;;;;;11.35;2.95;;;;;;;;;;5033437;28;20025;-78
2023/05/03 06:04:11;;;;;;;9.50;3.08;;;;;;;;;;5033678;28;20041;-79
2023/05/03 06:06:37;;;;;;;7.60;2.83;;;;;;;;;;5033452;28;20483;-71
2023/05/03 06:09:02;;;;;;;10.77;3.20;;;;;;;;;;5032994;28;20043;-79
2023/05/03 06:11:28;;;;;;;9.85;3.15;;;;;;;;;;5033917;28;20037;-77
2023/05/03 06:13:55;;;;;;;9.27;2.97;;;;;;;;;;5033372;28;20021;-77
2023/05/03 06:16:21;;;;;;;7.00;3.50;;;;;;;;;;5033741;28;20034;-79
2023/05/03 06:18:46;;;;;;;10.50;2.90;;;;;;;;;;5035343;28;20083;-75
2023/05/03 06:21:12;;;;;;;12.15;2.97;;;;;;;;;;5049582;28;20036;-77
2023/05/03 06:23:39;;;;;;;11.80;2.90;;;;;;;;;;5053181;28;20057;-75
2023/05/03 06:26:05;;;;;;;7.63;2.88;;;;;;;;;;5054842;28;20045;-76
2023/05/03 06:28:30;;;;;;;9.77;3.47;;;;;;;;;;5053213;28;20025;-76
2023/05/03 06:30:55;;;;;;;7.95;3.10;;;;;;;;;;5052965;28;20094;-75
2023/05/03 06:33:21;;;;;;;7.20;2.90;;;;;;;;;;5053827;28;20025;-76
2023/05/03 06:35:46;;;;;;;10.45;2.88;;;;;;;;;;5048584;28;20032;-67
2023/05/03 06:38:12;;;;;;;10.63;3.42;;;;;;;;;;5033055;28;20028;-77
2023/05/03 06:40:40;;;;;;;8.45;2.83;;;;;;;;;;5033073;28;20063;-70
2023/05/03 06:43:06;;;;;;;12.02;3.65;;;;;;;;;;5032774;28;20044;-77
2023/05/03 06:45:31;;;;;;;7.80;2.58;;;;;;;;;;5033064;28;20045;-78
2023/05/03 06:47:57;;;;;;;9.02;2.35;;;;;;;;;;5033123;28;20026;-77
2023/05/03 06:50:23;;;;;;;4.10;2.20;;;;;;;;;;5037700;28;20068;-78
2023/05/03 06:52:49;;;;;;;15.00;3.00;;;;;;;;;;5037237;28;20053;-78
2023/05/03 06:55:15;;;;;;;4.68;2.10;;;;;;;;;;5037001;28;20021;-74
2023/05/03 06:57:41;;;;;;;6.75;2.40;;;;;;;;;;5037272;28;20048;-77
2023/05/03 07:00:07;;;;;;;9.55;2.50;;;;;;;;;;5036854;28;20108;-77
2023/05/03 07:02:33;;;;;;;9.98;2.53;;;;;;;;;;5036941;28;20026;-76
2023/05/03 07:04:59;;;;;;;6.18;2.80;;;;;;;;;;5036696;28;20096;-77
2023/05/03 07:07:24;;;;;;;10.18;2.53;;;;;;;;;;5036826;28;20032;-76
2023/05/03 07:09:50;;;;;;;5.30;2.45;;;;;;;;;;5036319;28;20028;-68
2023/05/03 07:12:15;;;;;;;6.55;2.42;;;;;;;;;;5036584;28;20025;-77
2023/05/03 07:14:41;;;;;;;9.40;2.22;;;;;;;;;;5037286;28;20175;-75
2023/05/03 07:17:07;;;;;;;6.82;2.13;;;;;;;;;;5036544;28;20026;-75
2023/05/03 07:19:33;;;;;;;5.53;1.90;;;;;;;;;;5036187;28;20490;-71
2023/05/03 07:21:58;;;;;;;6.65;2.00;;;;;;;;;;5036100;28;20040;-69
2023/05/03 07:24:24;;;;;;;7.35;1.77;;;;;;;;;;5036145;28;20087;-72
2023/05/03 07:26:51;;;;;;;6.45;2.20;;;;;;;;;;5036092;28;20073;-67
2023/05/03 07:29:16;;;;;;;6.47;2.13;;;;;;;;;;5036237;28;20046;-67
2023/05/03 07:31:43;;;;;;;6.72;2.13;;;;;;;;;;5036193;28;20033;-69
2023/05/03 07:34:09;;;;;;;10.80;2.60;;;;;;;;;;5036008;28;20018;-73
2023/05/03 07:36:34;;;;;;;4.93;2.10;;;;;;;;;;5036156;28;20033;-68
2023/05/03 07:39:00;;;;;;;8.75;2.45;;;;;;;;;;5035664;28;20029;-70
2023/05/03 07:41:25;;;;;;;6.20;2.05;;;;;;;;;;5036200;28;20025;-67
2023/05/03 07:43:51;;;;;;;6.78;2.40;;;;;;;;;;5036138;28;20071;-66
2023/05/03 07:46:16;;;;;;;7.85;2.60;;;;;;;;;;5035754;28;20030;-74
2023/05/03 07:48:42;;;;;;;6.95;2.30;;;;;;;;;;5035919;28;20351;-76
2023/05/03 07:51:07;;;;;;;7.28;2.22;;;;;;;;;;5035822;28;20041;-69
2023/05/03 07:53:34;;;;;;;7.82;2.47;;;;;;;;;;5036390;28;20025;-80
2023/05/03 07:56:00;;;;;;;6.55;2.47;;;;;;;;;;5035595;28;20036;-78
2023/05/03 07:58:25;;;;;;;6.47;2.42;;;;;;;;;;5035807;28;20374;-74
2023/05/03 08:00:51;;;;;;;9.27;2.38;;;;;;;;;;5035606;28;20113;-67
2023/05/03 08:03:17;;;;;;;6.60;2.38;;;;;;;;;;5035567;28;20036;-67
2023/05/03 08:05:42;;;;;;;4.68;2.00;;;;;;;;;;5035729;28;20374;-72
2023/05/03 08:08:08;;;;;;;5.65;2.33;;;;;;;;;;5035831;28;20055;-78
2023/05/03 08:10:36;;;;;;;10.30;2.25;;;;;;;;;;5035634;28;20025;-79
2023/05/03 08:13:04;;;;;;;4.47;2.05;;;;;;;;;;5035376;28;20084;-77
2023/05/03 08:15:30;;;;;;;6.50;2.30;;;;;;;;;;5035435;28;20112;-76
2023/05/03 08:17:55;;;;;;;7.85;2.30;;;;;;;;;;5035985;28;20057;-77
2023/05/03 08:20:22;;;;;;;7.43;3.05;;;;;;;;;;5034977;28;20029;-72
2023/05/03 08:22:48;;;;;;;6.10;2.10;;;;;;;;;;5035336;28;20057;-77
2023/05/03 08:25:15;;;;;;;7.82;2.55;;;;;;;;;;5034959;28;20067;-78
2023/05/03 08:27:41;;;;;;;7.80;2.38;;;;;;;;;;5035137;28;20026;-74
2023/05/03 08:30:07;;;;;;;7.57;2.60;;;;;;;;;;5035106;28;20034;-75
2023/05/03 08:32:33;;;;;;;6.18;2.47;;;;;;;;;;5035236;28;20040;-79
2023/05/03 08:34:58;;;;;;;6.20;2.33;;;;;;;;;;5033551;28;20368;-76
2023/05/03 08:37:24;;;;;;;8.13;2.70;;;;;;;;;;5035177;28;20131;-78
2023/05/03 08:39:50;;;;;;;11.18;3.00;;;;;;;;;;5035585;28;20108;-78
2023/05/03 08:42:15;;;;;;;8.70;2.35;;;;;;;;;;5034791;28;20119;-76
2023/05/03 08:44:49;;;;;;;9.07;2.70;;;;;;;;;;5034848;28;20033;-79
2023/05/03 08:47:18;;;;;;;8.85;2.40;;;;;;;;;;5034748;28;20033;-77
2023/05/03 08:49:44;;;;;;;10.38;3.35;;;;;;;;;;5034288;28;20040;-77
2023/05/03 08:52:11;;;;;;;7.20;2.80;;;;;;;;;;5034735;28;20100;-77
2023/05/03 08:54:37;;;;;;;7.20;2.22;;;;;;;;;;5034780;28;20048;-75
2023/05/03 08:57:03;;;;;;;6.65;2.40;;;;;;;;;;5034699;28;20022;-76
2023/05/03 08:59:28;;;;;;;7.55;2.53;;;;;;;;;;5034598;28;20028;-76
2023/05/03 09:01:54;;;;;;;4.10;2.25;;;;;;;;;;5034571;28;20028;-75
2023/05/03 09:04:20;;;;;;;6.63;2.10;;;;;;;;;;5034035;28;20399;-76
2023/05/03 09:06:45;;;;;;;8.52;2.22;;;;;;;;;;5034317;28;20025;-72
2023/05/03 09:09:11;;;;;;;9.20;2.38;;;;;;;;;;5034301;28;20524;-75
2023/05/03 09:11:37;;;;;;;6.10;2.40;;;;;;;;;;5033714;28;20530;-76
2023/05/03 09:14:10;;;;;;;6.95;2.55;;;;;;;;;;5034424;28;20022;-75
2023/05/03 09:16:36;;;;;;;7.65;2.83;;;;;;;;;;5034199;28;20049;-74
2023/05/03 09:19:07;;;;;;;8.70;2.40;;;;;;;;;;5033914;28;20044;-77
2023/05/03 09:21:32;;;;;;;7.93;2.53;;;;;;;;;;5034063;28;20044;-78
2023/05/03 09:23:58;;;;;;;8.88;2.75;;;;;;;;;;5033827;28;20029;-74
2023/05/03 09:26:31;;;;;;;5.85;2.30;;;;;;;;;;5034110;28;20123;-78
2023/05/03 09:29:01;;;;;;;8.60;2.47;;;;;;;;;;5034004;28;20025;-77
2023/05/03 09:31:31;;;;;;;7.28;2.60;;;;;;;;;;5033940;28;20382;-77
2023/05/03 09:33:57;;;;;;;5.40;2.15;;;;;;;;;;5033931;28;20382;-77
2023/05/03 09:36:23;;;;;;;7.07;2.42;;;;;;;;;;5033916;28;20044;-77
2023/05/03 09:38:49;;;;;;;5.97;2.38;;;;;;;;;;5033855;28;20025;-78
2023/05/03 09:41:15;;;;;;;8.27;2.60;;;;;;;;;;5033549;28;20422;-77
2023/05/03 09:43:49;;;;;;;7.38;2.80;;;;;;;;;;5033816;28;20026;-78
2023/05/03 09:46:14;;;;;;;9.68;2.42;;;;;;;;;;5033797;28;20053;-77
2023/05/03 09:48:41;;;;;;;7.30;2.35;;;;;;;;;;5033376;28;20033;-79
2023/05/03 09:51:07;;;;;;;5.07;1.95;;;;;;;;;;5033556;28;20083;-78
2023/05/03 09:53:34;;;;;;;7.13;2.28;;;;;;;;;;5033508;28;20033;-74
2023/05/03 09:56:02;;;;;;;5.82;2.53;;;;;;;;;;5033301;28;20108;-78
2023/05/03 09:58:29;;;;;;;7.35;2.30;;;;;;;;;;5033587;28;20075;-75
2023/05/03 10:00:55;;;;;;;7.88;2.33;;;;;;;;;;5033670;28;20025;-76
2023/05/03 10:03:49;;;;;;;7.38;2.40;;;;;;;;;;5033035;28;20032;-76
2023/05/03 10:06:28;;;;;;;6.75;2.33;;;;;;;;;;5033343;28;20049;-75
2023/05/03 10:09:22;;;;;;;7.40;2.40;;;;;;;;;;5033379;28;20033;-66
2023/05/03 10:11:51;;;;;;;5.80;2.10;;;;;;;;;;5033379;28;20026;-72
2023/05/03 10:14:16;;;;;;;4.47;2.05;;;;;;;;;;5033190;28;20029;-75
2023/05/03 10:16:46;;;;;;;3.67;1.90;;;;;;;;;;5033277;28;20027;-73
2023/05/03 10:19:57;;;;;;;5.80;2.20;;;;;;;;;;5032961;28;20482;-71
2023/05/03 10:22:22;;;;;;;6.13;2.20;;;;;;;;;;5010708;28;20189;-69
2023/05/03 10:25:09;;;;;;;5.47;2.25;;;;;;;;;;5010658;28;20073;-68
2023/05/03 10:27:41;;;;;;;10.45;2.75;;;;;;;;;;5011036;28;20046;-69
2023/05/03 10:30:08;;;;;;;10.68;2.40;;;;;;;;;;5010885;28;20034;-71
2023/05/03 10:32:41;;;;;;;6.78;2.30;;;;;;;;;;5010770;28;20069;-68
2023/05/03 10:35:15;;;;;;;6.75;2.45;;;;;;;;;;5011061;28;20029;-76
2023/05/03 10:37:42;;;;;;;8.05;2.60;;;;;;;;;;5010720;28;20120;-70
2023/05/03 10:40:12;;;;;;;8.70;2.35;;;;;;;;;;5010674;28;20554;-69
2023/05/03 10:42:43;;;;;;;6.55;2.08;;;;;;;;;;5010685;28;20531;-71
2023/05/03 10:45:10;;;;;;;7.13;2.40;;;;;;;;;;5010619;28;20069;-65
2023/05/03 10:47:36;;;;;;;7.32;2.20;;;;;;;;;;5010747;28;20034;-73
2023/05/03 10:50:24;;;;;;;4.28;2.35;;;;;;;;;;5010508;28;20377;-71
2023/05/03 10:52:49;;;;;;;9.02;2.25;;;;;;;;;;5010750;28;20434;-72
2023/05/03 10:55:23;;;;;;;8.05;2.47;;;;;;;;;;5010714;28;20029;-73
2023/05/03 10:57:53;;;;;;;5.32;2.05;;;;;;;;;;5010835;28;20137;-73
2023/05/03 11:00:40;;;;;;;6.40;2.23;;;;;;;;;;5031373;28;20037;-77
2023/05/03 11:03:14;;;;;;;6.80;2.35;;;;;;;;;;5032543;28;20388;-77
2023/05/03 11:05:39;;;;;;;5.07;2.10;;;;;;;;;;5032718;28;20386;-76
2023/05/03 11:08:17;;;;;;;5.90;1.90;;;;;;;;;;5032605;28;20033;-76
2023/05/03 11:10:44;;;;;;;5.18;1.85;;;;;;;;;;5032682;28;20372;-77
2023/05/03 11:13:11;;;;;;;6.43;1.85;;;;;;;;;;5031293;28;20033;-77
2023/05/03 11:15:37;;;;;;;5.82;1.80;;;;;;;;;;5032290;28;20056;-76
2023/05/03 11:18:05;;;;;;;4.43;1.58;;;;;;;;;;5032510;28;20430;-76
2023/05/03 11:20:30;;;;;;;7.30;2.20;;;;;;;;;;5032226;28;20118;-76
2023/05/03 11:22:56;;;;;;;8.52;2.28;;;;;;;;;;5032538;28;20108;-77
2023/05/03 11:25:21;;;;;;;8.88;2.20;;;;;;;;;;5032444;28;20059;-75
2023/05/03 11:27:47;;;;;;;6.57;2.20;;;;;;;;;;5032333;28;20482;-76
2023/05/03 11:30:13;;;;;;;8.60;2.17;;;;;;;;;;5032011;28;20404;-77
2023/05/03 11:32:42;;;;;;;6.03;1.90;;;;;;;;;;5032346;28;20053;-74
2023/05/03 11:35:08;;;;;;;7.80;1.80;;;;;;;;;;5034186;28;20032;-75
2023/05/03 11:37:34;;;;;;;7.22;2.05;;;;;;;;;;5036012;28;20439;-76
2023/05/03 11:40:00;;;;;;;5.40;2.03;;;;;;;;;;5035873;28;20026;-63
2023/05/03 11:42:27;;;;;;;7.55;2.17;;;;;;;;;;5035982;28;20025;-71
2023/05/03 11:44:53;;;;;;;7.68;2.40;;;;;;;;;;5035441;28;20029;-75
2023/05/03 11:47:18;;;;;;;5.85;2.17;;;;;;;;;;5035871;28;20033;-72
2023/05/03 11:49:51;;;;;;;7.22;2.20;;;;;;;;;;5035880;28;20036;-77
2023/05/03 11:52:21;;;;;;;5.07;2.00;;;;;;;;;;5035807;28;20448;-70
2023/05/03 11:54:46;;;;;;;4.30;1.70;;;;;;;;;;5035790;28;20025;-70
2023/05/03 11:57:13;;;;;;;7.43;2.28;;;;;;;;;;5035680;28;20537;-75
2023/05/03 11:59:39;;;;;;;5.45;2.40;;;;;;;;;;5035403;28;20087;-68
2023/05/03 12:02:06;;;;;;;6.22;1.90;;;;;;;;;;5035500;28;20066;-70
2023/05/03 12:04:32;;;;;;;5.38;1.80;;;;;;;;;;5035416;28;20554;-72
2023/05/03 12:06:57;;;;;;;7.28;2.22;;;;;;;;;;5035666;28;20030;-70
2023/05/03 12:09:24;;;;;;;4.57;1.60;;;;;;;;;;5035380;28;20040;-73
2023/05/03 12:11:50;;;;;;;5.95;1.77;;;;;;;;;;5035302;28;20022;-71
2023/05/03 12:14:16;;;;;;;5.40;1.80;;;;;;;;;;5035301;28;20036;-67
2023/05/03 12:16:50;;;;;;;4.97;2.00;;;;;;;;;;5035189;28;20025;-77
2023/05/03 12:19:29;;;;;;;6.35;2.22;;;;;;;;;;5034823;28;20575;-68
2023/05/03 12:21:55;;;;;;;7.03;2.00;;;;;;;;;;5035213;28;20487;-67
2023/05/03 12:24:22;;;;;;;4.72;2.00;;;;;;;;;;5035343;28;20026;-77
2023/05/03 12:26:50;;;;;;;5.82;1.90;;;;;;;;;;5034671;28;20057;-72
2023/05/03 12:29:16;;;;;;;6.18;2.00;;;;;;;;;;5035074;28;20040;-73
2023/05/03 12:31:43;;;;;;;4.70;1.70;;;;;;;;;;5034964;28;20112;-70
2023/05/03 12:34:08;;;;;;;6.22;2.22;;;;;;;;;;5035019;28;20026;-66
2023/05/03 12:36:34;;;;;;;8.10;2.42;;;;;;;;;;5034825;28;20026;-68
2023/05/03 12:39:01;;;;;;;3.10;1.52;;;;;;;;;;5034988;28;20391;-70
2023/05/03 12:41:30;;;;;;;4.70;1.50;;;;;;;;;;5034281;28;20382;-64
2023/05/03 12:43:57;;;;;;;6.95;1.90;;;;;;;;;;5034839;28;20087;-69
2023/05/03 12:46:23;;;;;;;7.05;2.10;;;;;;;;;;5033888;28;20026;-74
2023/05/03 12:48:49;;;;;;;6.40;2.00;;;;;;;;;;5034674;28;20029;-69
2023/05/03 12:51:14;;;;;;;4.75;2.00;;;;;;;;;;5034579;28;20028;-66
2023/05/03 12:53:40;;;;;;;5.18;2.13;;;;;;;;;;5034588;28;20022;-72
2023/05/03 12:56:06;;;;;;;5.60;1.83;;;;;;;;;;5034436;28;20026;-68
2023/05/03 12:58:32;;;;;;;6.07;1.90;;;;;;;;;;5034596;28;20380;-66
2023/05/03 13:00:58;;;;;;;7.22;1.80;;;;;;;;;;5034398;28;20433;-74
2023/05/03 13:03:24;;;;;;;4.28;2.00;;;;;;;;;;5034160;28;20033;-72
2023/05/03 13:05:49;;;;;;;4.68;2.05;;;;;;;;;;5034336;28;20021;-67
2023/05/03 13:08:15;;;;;;;5.85;1.90;;;;;;;;;;5033314;28;20045;-72
2023/05/03 13:10:41;;;;;;;12.50;2.22;;;;;;;;;;5034088;28;20087;-65
2023/05/03 13:13:08;;;;;;;4.32;1.63;;;;;;;;;;5034336;28;20017;-68
2023/05/03 13:15:35;;;;;;;4.25;1.70;;;;;;;;;;5034003;28;20034;-67
2023/05/03 13:18:02;;;;;;;5.35;2.10;;;;;;;;;;5034010;28;20021;-64
2023/05/03 13:20:27;;;;;;;4.78;1.83;;;;;;;;;;5033919;28;20084;-78
2023/05/03 13:22:53;;;;;;;5.25;2.08;;;;;;;;;;5034153;28;20506;-67
2023/05/03 13:25:19;;;;;;;3.97;1.70;;;;;;;;;;5033768;28;20064;-70
2023/05/03 13:27:46;;;;;;;4.78;1.80;;;;;;;;;;5034089;28;20029;-72
2023/05/03 13:30:13;;;;;;;7.03;1.83;;;;;;;;;;5033753;28;20025;-65
2023/05/03 13:32:39;;;;;;;5.25;2.00;;;;;;;;;;5033769;28;20036;-64
2023/05/03 13:35:05;;;;;;;3.67;1.65;;;;;;;;;;5033804;28;20432;-64
2023/05/03 13:37:30;;;;;;;6.18;1.85;;;;;;;;;;5033667;28;20033;-64
2023/05/03 13:39:56;;;;;;;5.40;2.00;;;;;;;;;;5033326;28;20034;-75
2023/05/03 13:42:21;;;;;;;4.47;2.00;;;;;;;;;;5033699;28;20021;-73
2023/05/03 13:44:47;;;;;;;5.00;2.05;;;;;;;;;;5033714;28;20064;-78
2023/05/03 13:47:13;;;;;;;8.63;2.33;;;;;;;;;;5033458;28;20030;-72
2023/05/03 13:49:39;;;;;;;6.40;2.00;;;;;;;;;;5033593;28;20052;-75
2023/05/03 13:52:04;;;;;;;5.25;1.70;;;;;;;;;;5033466;28;20021;-74
2023/05/03 13:54:29;;;;;;;4.60;1.80;;;;;;;;;;5033226;28;20021;-67
2023/05/03 13:56:55;;;;;;;8.60;2.22;;;;;;;;;;5033171;28;20025;-65
2023/05/03 13:59:20;;;;;;;4.32;1.65;;;;;;;;;;5033419;28;20029;-74
2023/05/03 14:01:46;;;;;;;6.68;2.10;;;;;;;;;;5033223;28;20030;-74
2023/05/03 14:04:12;;;;;;;4.53;1.60;;;;;;;;;;5033450;28;20031;-76
2023/05/03 14:06:38;;;;;;;5.55;2.10;;;;;;;;;;5033415;28;20415;-71
2023/05/03 14:09:05;;;;;;;5.18;1.58;;;;;;;;;;5032724;28;20477;-71
2023/05/03 14:11:30;;;;;;;7.03;2.72;;;;;;;;;;5033246;28;20029;-66
2023/05/03 14:13:56;;;;;;;5.85;2.15;;;;;;;;;;5033361;28;20048;-71
2023/05/03 14:16:23;;;;;;;4.97;1.63;;;;;;;;;;5033194;28;20069;-62
2023/05/03 14:18:50;;;;;;;4.63;2.00;;;;;;;;;;5033236;28;20032;-71
2023/05/03 14:21:19;;;;;;;4.90;2.05;;;;;;;;;;5032560;28;20083;-68
2023/05/03 14:23:45;;;;;;;5.68;1.95;;;;;;;;;;5033041;28;20025;-64
2023/05/03 14:26:11;;;;;;;3.17;1.50;;;;;;;;;;5032815;28;20045;-67
2023/05/03 14:28:36;;;;;;;6.00;2.05;;;;;;;;;;5033228;28;20434;-69
2023/05/03 14:31:06;;;;;;;7.03;1.75;;;;;;;;;;5033108;28;20029;-69
2023/05/03 14:33:32;;;;;;;5.80;1.77;;;;;;;;;;5033187;28;20525;-71
2023/05/03 14:35:57;;;;;;;5.55;1.50;;;;;;;;;;5032890;28;20034;-69
2023/05/03 14:38:23;;;;;;;5.80;1.60;;;;;;;;;;5032697;28;20029;-66
2023/05/03 14:40:50;;;;;;;6.35;1.75;;;;;;;;;;5032811;28;20025;-68